Time;durP1;ratioP1;P1;durP2;ratioP2;P2;SDS_P1;SDS_P2;PMS_P1;PMS_P2;Temp;Humidity;BMP_temperature;BMP_pressure;BME280_temperature;BME280_humidity;BME280_pressure;Samples;Min_cycle;Max_cycle;Signal;HPM_P1;HPM_P2
2021/05/23 00:00:25;;;;;;;11.10;2.45;;;14.60;55.20;;;;;;5045342;28;20632;-66
2021/05/23 00:02:51;;;;;;;15.60;2.33;;;14.60;55.20;;;;;;5046213;28;20041;-66
2021/05/23 00:05:22;;;;;;;14.32;3.05;;;14.60;55.20;;;;;;5041989;28;20128;-66
2021/05/23 00:07:59;;;;;;;10.18;2.65;;;14.60;55.20;;;;;;5040929;28;20109;-66
2021/05/23 00:10:27;;;;;;;8.50;2.30;;;14.60;55.30;;;;;;5024011;28;20037;-66
2021/05/23 00:12:56;;;;;;;10.73;2.55;;;14.60;55.30;;;;;;5032405;28;20048;-66
2021/05/23 00:15:34;;;;;;;8.18;2.50;;;14.60;55.40;;;;;;5034247;28;20114;-66
2021/05/23 00:18:03;;;;;;;16.30;2.58;;;14.60;55.50;;;;;;5040055;28;20041;-66
2021/05/23 00:20:29;;;;;;;12.23;2.78;;;14.50;55.30;;;;;;5039196;28;20111;-66
2021/05/23 00:22:57;;;;;;;13.38;2.45;;;14.50;55.40;;;;;;5049720;28;20458;-66
2021/05/23 00:25:23;;;;;;;4.35;2.20;;;14.50;55.40;;;;;;5050234;28;20039;-66
2021/05/23 00:27:52;;;;;;;6.07;2.38;;;14.50;55.40;;;;;;5050818;28;20459;-65
2021/05/23 00:30:19;;;;;;;9.90;2.30;;;14.50;55.50;;;;;;5044408;28;20166;-66
2021/05/23 00:32:50;;;;;;;17.23;2.67;;;14.50;55.50;;;;;;5049321;28;20485;-66
2021/05/23 00:35:16;;;;;;;8.38;2.20;;;14.50;55.60;;;;;;5047587;28;20071;-66
2021/05/23 00:37:41;;;;;;;9.85;2.47;;;14.50;55.50;;;;;;5049831;28;20036;-66
2021/05/23 00:40:08;;;;;;;15.43;2.42;;;14.40;55.40;;;;;;5044550;28;20040;-66
2021/05/23 00:42:33;;;;;;;10.35;2.25;;;14.50;55.40;;;;;;5049754;28;20401;-66
2021/05/23 00:45:01;;;;;;;6.82;1.95;;;14.50;55.40;;;;;;5045444;28;20037;-66
2021/05/23 00:47:29;;;;;;;12.05;2.15;;;14.50;55.40;;;;;;5058509;28;20047;-65
2021/05/23 00:49:59;;;;;;;10.70;2.65;;;14.50;55.40;;;;;;5053430;28;20021;-65
2021/05/23 00:52:28;;;;;;;8.93;2.40;;;14.40;55.40;;;;;;5057454;28;20037;-65
2021/05/23 00:54:53;;;;;;;11.32;2.90;;;14.40;55.30;;;;;;5054033;28;20486;-65
2021/05/23 00:57:19;;;;;;;11.45;2.75;;;14.40;55.30;;;;;;5057428;28;20045;-66
2021/05/23 00:59:46;;;;;;;10.00;2.70;;;14.30;55.10;;;;;;5046487;28;20032;-66
2021/05/23 01:02:18;;;;;;;12.30;2.50;;;14.30;55.00;;;;;;5046450;28;20754;-65
2021/05/23 01:04:43;;;;;;;16.58;2.50;;;14.20;55.10;;;;;;5045450;28;21901;-64
2021/05/23 01:07:09;;;;;;;14.02;2.60;;;14.10;55.20;;;;;;5052273;28;20028;-65
2021/05/23 01:09:36;;;;;;;10.02;3.00;;;14.00;55.40;;;;;;5048194;28;20025;-65
2021/05/23 01:12:21;;;;;;;12.82;2.65;;;14.00;55.50;;;;;;5046687;28;20040;-65
2021/05/23 01:15:08;;;;;;;15.05;2.42;;;13.90;55.60;;;;;;5047206;28;20086;-65
2021/05/23 01:17:40;;;;;;;11.73;2.60;;;13.80;55.70;;;;;;5048542;28;20032;-65
2021/05/23 01:20:25;;;;;;;11.15;2.53;;;13.70;55.90;;;;;;5048167;28;20051;-65
2021/05/23 01:23:25;;;;;;;14.85;2.55;;;13.60;55.90;;;;;;5047161;28;20036;-65
2021/05/23 01:25:55;;;;;;;14.05;3.92;;;13.50;56.10;;;;;;5033571;28;20037;-65
2021/05/23 01:28:21;;;;;;;9.95;2.53;;;13.40;56.40;;;;;;5050706;28;20104;-65
2021/05/23 01:30:50;;;;;;;8.20;2.60;;;13.30;56.60;;;;;;5043353;28;20037;-65
2021/05/23 01:33:19;;;;;;;6.57;2.80;;;13.30;56.70;;;;;;5033238;28;20032;-65
2021/05/23 01:35:53;;;;;;;7.18;2.40;;;13.20;56.80;;;;;;5051346;28;20040;-64
2021/05/23 01:38:23;;;;;;;14.70;2.92;;;13.20;56.90;;;;;;5045828;28;20063;-65
2021/05/23 01:40:51;;;;;;;6.80;2.45;;;13.10;56.90;;;;;;5035341;28;20036;-65
2021/05/23 01:43:19;;;;;;;11.23;2.95;;;13.00;57.00;;;;;;5050434;28;20041;-65
2021/05/23 01:45:47;;;;;;;10.25;2.42;;;13.00;57.20;;;;;;5045317;28;20106;-65
2021/05/23 01:48:13;;;;;;;10.60;2.65;;;12.90;57.40;;;;;;5057452;28;20041;-65
2021/05/23 01:50:39;;;;;;;18.05;2.88;;;12.90;57.40;;;;;;5045012;28;20161;-65
2021/05/23 01:53:06;;;;;;;11.02;2.60;;;12.90;57.50;;;;;;5047131;28;20050;-65
2021/05/23 01:55:36;;;;;;;9.18;2.65;;;12.80;57.60;;;;;;5040590;28;20131;-65
2021/05/23 01:58:04;;;;;;;13.30;2.90;;;12.80;57.70;;;;;;5051707;28;22058;-65
2021/05/23 02:00:33;;;;;;;15.80;3.42;;;12.80;57.90;;;;;;5043592;28;20067;-65
2021/05/23 02:02:59;;;;;;;16.75;2.95;;;12.80;57.90;;;;;;5051802;28;20051;-65
2021/05/23 02:05:26;;;;;;;11.65;2.97;;;12.80;58.00;;;;;;5054739;28;20394;-66
2021/05/23 02:07:57;;;;;;;9.13;2.70;;;12.80;58.10;;;;;;5049645;28;20494;-65
2021/05/23 02:10:25;;;;;;;13.77;2.78;;;12.80;58.10;;;;;;5046504;28;20090;-65
2021/05/23 02:12:55;;;;;;;15.38;2.92;;;12.80;58.00;;;;;;5045809;28;20043;-64
2021/05/23 02:15:23;;;;;;;11.18;3.15;;;12.70;57.90;;;;;;5045060;28;20044;-65
2021/05/23 02:17:51;;;;;;;14.35;3.15;;;12.70;58.00;;;;;;5048159;28;20557;-65
2021/05/23 02:20:22;;;;;;;9.35;2.70;;;12.60;58.00;;;;;;5050478;28;20098;-65
2021/05/23 02:22:51;;;;;;;7.93;3.22;;;12.60;58.10;;;;;;5046278;28;20033;-65
2021/05/23 02:25:21;;;;;;;11.80;3.25;;;12.50;58.10;;;;;;5046327;28;20105;-66
2021/05/23 02:27:52;;;;;;;14.63;3.55;;;12.50;58.10;;;;;;5044871;28;20473;-65
2021/05/23 02:30:26;;;;;;;11.43;3.08;;;12.50;58.40;;;;;;5037573;28;20025;-66
2021/05/23 02:32:52;;;;;;;9.48;2.90;;;12.40;58.40;;;;;;5049643;27;20123;-66
2021/05/23 02:35:22;;;;;;;10.48;3.30;;;12.40;58.50;;;;;;5047201;28;20032;-67
2021/05/23 02:37:49;;;;;;;15.43;3.50;;;12.40;58.60;;;;;;5045281;28;20476;-66
2021/05/23 02:40:17;;;;;;;11.02;3.63;;;12.40;58.60;;;;;;5042792;28;20041;-66
2021/05/23 02:42:42;;;;;;;11.60;4.18;;;12.40;58.70;;;;;;5049752;28;20555;-66
2021/05/23 02:45:10;;;;;;;12.45;3.22;;;12.30;58.60;;;;;;5047379;28;20037;-66
2021/05/23 02:47:36;;;;;;;14.05;3.53;;;12.30;58.70;;;;;;5046412;28;20506;-66
2021/05/23 02:50:10;;;;;;;14.60;3.83;;;12.20;58.70;;;;;;5032280;28;20044;-66
2021/05/23 02:52:36;;;;;;;10.40;3.33;;;12.20;58.80;;;;;;5049374;28;20554;-66
2021/05/23 02:55:06;;;;;;;10.80;3.22;;;12.20;58.80;;;;;;5041472;28;20542;-66
2021/05/23 02:57:33;;;;;;;10.23;3.72;;;12.10;58.90;;;;;;5045640;28;20036;-65
2021/05/23 02:59:58;;;;;;;9.32;3.53;;;12.10;58.90;;;;;;5042010;28;20044;-65
2021/05/23 03:02:24;;;;;;;20.92;4.10;;;12.10;59.00;;;;;;5043661;28;20422;-66
2021/05/23 03:04:49;;;;;;;13.10;3.70;;;12.00;59.10;;;;;;5044843;28;20174;-65
2021/05/23 03:07:15;;;;;;;13.20;3.65;;;12.00;59.20;;;;;;5044777;28;20160;-65
2021/05/23 03:09:43;;;;;;;10.88;3.70;;;11.90;59.20;;;;;;5043852;28;20510;-65
2021/05/23 03:12:11;;;;;;;21.98;3.70;;;11.90;59.30;;;;;;5049032;28;20036;-66
2021/05/23 03:14:36;;;;;;;10.85;3.42;;;11.90;59.50;;;;;;5048326;28;20129;-65
2021/05/23 03:17:07;;;;;;;15.02;3.72;;;11.90;59.50;;;;;;5040345;28;20457;-65
2021/05/23 03:19:37;;;;;;;12.55;3.55;;;11.90;59.50;;;;;;5039357;28;20040;-65
2021/05/23 03:22:05;;;;;;;18.77;4.28;;;11.90;59.60;;;;;;5043851;28;20071;-66
2021/05/23 03:24:33;;;;;;;19.08;4.25;;;11.80;59.60;;;;;;5046900;28;20046;-66
2021/05/23 03:27:00;;;;;;;16.23;4.15;;;11.80;59.70;;;;;;5053364;28;20039;-67
2021/05/23 03:29:28;;;;;;;9.80;3.65;;;11.80;59.70;;;;;;5047559;28;20039;-66
2021/05/23 03:31:53;;;;;;;11.63;3.33;;;11.80;59.80;;;;;;5042975;28;20036;-66
2021/05/23 03:34:23;;;;;;;9.95;3.67;;;11.70;59.80;;;;;;5051588;28;20028;-66
2021/05/23 03:36:52;;;;;;;13.65;3.63;;;11.70;59.80;;;;;;5046652;28;20453;-65
2021/05/23 03:39:17;;;;;;;15.77;4.03;;;11.70;59.90;;;;;;5041088;28;20124;-66
2021/05/23 03:41:45;;;;;;;16.33;3.90;;;11.70;60.00;;;;;;5060839;28;20029;-65
2021/05/23 03:44:13;;;;;;;11.88;3.35;;;11.70;60.00;;;;;;5045162;28;20086;-66
2021/05/23 03:46:43;;;;;;;22.67;4.05;;;11.70;60.10;;;;;;5049131;28;20682;-66
2021/05/23 03:49:12;;;;;;;14.10;3.85;;;11.70;60.20;;;;;;5039382;28;20065;-65
2021/05/23 03:51:37;;;;;;;12.27;3.83;;;11.70;60.30;;;;;;5044401;28;20033;-66
2021/05/23 03:54:07;;;;;;;20.98;4.10;;;11.70;60.40;;;;;;5051460;28;20141;-66
2021/05/23 03:56:32;;;;;;;11.20;3.40;;;11.70;60.40;;;;;;5051797;28;20524;-65
2021/05/23 03:59:00;;;;;;;14.15;3.78;;;11.70;60.40;;;;;;5044293;27;20278;-65
2021/05/23 04:01:26;;;;;;;10.43;3.78;;;11.70;60.40;;;;;;5052416;28;20059;-65
2021/05/23 04:03:56;;;;;;;11.23;3.47;;;11.70;60.50;;;;;;5051556;28;20491;-65
2021/05/23 04:06:22;;;;;;;11.57;4.07;;;11.70;60.50;;;;;;5045119;28;20045;-66
2021/05/23 04:08:47;;;;;;;14.95;3.22;;;11.70;60.40;;;;;;5051381;28;20491;-66
2021/05/23 04:11:16;;;;;;;15.45;3.97;;;11.80;60.60;;;;;;5042020;28;20058;-65
2021/05/23 04:13:42;;;;;;;15.27;3.92;;;11.80;60.60;;;;;;5054681;28;20127;-65
2021/05/23 04:16:11;;;;;;;17.45;4.15;;;11.80;60.60;;;;;;5045876;28;20975;-65
2021/05/23 04:18:39;;;;;;;12.23;4.28;;;11.70;60.60;;;;;;5049872;28;20073;-65
2021/05/23 04:21:07;;;;;;;8.00;3.50;;;11.80;60.60;;;;;;5070438;28;20041;-65
2021/05/23 04:23:36;;;;;;;17.30;4.32;;;11.80;60.70;;;;;;5051843;28;20274;-65
2021/05/23 04:26:02;;;;;;;12.13;3.17;;;11.80;60.80;;;;;;5046248;28;20082;-65
2021/05/23 04:28:28;;;;;;;15.88;3.50;;;11.80;60.80;;;;;;5049695;28;20093;-65
2021/05/23 04:30:56;;;;;;;11.00;4.10;;;11.80;60.90;;;;;;5047551;28;20029;-65
2021/05/23 04:33:24;;;;;;;16.63;3.85;;;11.80;60.90;;;;;;5054466;28;20079;-65
2021/05/23 04:35:49;;;;;;;17.23;4.18;;;11.80;61.00;;;;;;5051477;28;20492;-65
2021/05/23 04:38:15;;;;;;;13.18;3.60;;;11.80;60.90;;;;;;5053582;28;20041;-65
2021/05/23 04:40:41;;;;;;;14.68;4.38;;;11.80;60.90;;;;;;5050359;28;20579;-65
2021/05/23 04:43:06;;;;;;;12.10;4.00;;;11.90;61.00;;;;;;5048585;28;20687;-65
2021/05/23 04:45:35;;;;;;;20.90;4.43;;;11.90;61.20;;;;;;5050395;28;20032;-65
2021/05/23 04:48:04;;;;;;;12.30;4.40;;;12.00;61.10;;;;;;5049740;28;20139;-65
2021/05/23 04:50:30;;;;;;;12.98;3.67;;;12.00;61.20;;;;;;5044435;28;20424;-65
2021/05/23 04:52:56;;;;;;;19.00;3.78;;;12.10;61.20;;;;;;5049079;28;20509;-65
2021/05/23 04:55:24;;;;;;;9.93;3.67;;;12.10;61.20;;;;;;5051866;28;20036;-65
2021/05/23 04:57:52;;;;;;;9.00;4.00;;;12.10;61.20;;;;;;5048310;28;20032;-65
2021/05/23 05:00:23;;;;;;;9.63;3.78;;;12.10;61.20;;;;;;5043822;28;20036;-66
2021/05/23 05:02:49;;;;;;;12.50;3.67;;;12.20;61.20;;;;;;5043718;28;20106;-65
2021/05/23 05:05:15;;;;;;;15.85;3.83;;;12.30;61.20;;;;;;5042902;28;20044;-65
2021/05/23 05:07:45;;;;;;;10.77;3.42;;;12.30;61.20;;;;;;5052839;28;20037;-65
2021/05/23 05:10:12;;;;;;;14.55;3.70;;;12.40;61.20;;;;;;5033163;28;20071;-65
2021/05/23 05:12:40;;;;;;;10.27;3.75;;;12.50;61.10;;;;;;5046122;28;20036;-65
2021/05/23 05:15:12;;;;;;;11.10;4.10;;;12.50;60.90;;;;;;5049840;28;20056;-65
2021/05/23 05:17:40;;;;;;;13.05;3.40;;;12.50;60.80;;;;;;5043338;28;20048;-65
2021/05/23 05:20:11;;;;;;;8.90;3.60;;;12.50;60.80;;;;;;5045549;28;20521;-65
2021/05/23 05:22:37;;;;;;;14.35;4.38;;;12.60;60.90;;;;;;5040955;28;20056;-65
2021/05/23 05:25:04;;;;;;;14.00;3.28;;;12.60;60.80;;;;;;5046211;28;20029;-65
2021/05/23 05:27:32;;;;;;;12.23;3.75;;;12.70;61.00;;;;;;5045931;28;20033;-66
2021/05/23 05:30:00;;;;;;;10.38;3.40;;;12.70;60.90;;;;;;5042104;28;20144;-65
2021/05/23 05:32:25;;;;;;;14.48;3.90;;;12.80;60.70;;;;;;5047418;28;20051;-65
2021/05/23 05:34:56;;;;;;;14.75;4.00;;;12.90;60.70;;;;;;5044288;28;20028;-65
2021/05/23 05:37:24;;;;;;;12.73;3.40;;;13.00;60.60;;;;;;5037757;28;20410;-66
2021/05/23 05:39:52;;;;;;;20.70;3.95;;;13.20;60.60;;;;;;5039980;28;20050;-65
2021/05/23 05:42:18;;;;;;;7.93;3.28;;;13.60;60.60;;;;;;5041938;28;20040;-65
2021/05/23 05:44:43;;;;;;;14.43;3.25;;;13.80;59.60;;;;;;5036513;28;20044;-66
2021/05/23 05:47:09;;;;;;;11.38;2.47;;;14.00;59.30;;;;;;5040027;28;20029;-65
2021/05/23 05:49:36;;;;;;;11.50;3.25;;;14.20;59.40;;;;;;5045172;28;20746;-65
2021/05/23 05:52:03;;;;;;;15.07;3.20;;;14.50;59.00;;;;;;5041373;28;20094;-65
2021/05/23 05:54:29;;;;;;;7.97;2.47;;;;;;;;;;5038997;28;20053;-65
2021/05/23 05:57:00;;;;;;;11.52;3.33;;;15.00;59.70;;;;;;5034238;28;20056;-65
2021/05/23 05:59:27;;;;;;;5.82;1.70;;;18.10;57.10;;;;;;5045878;28;20597;-66
2021/05/23 06:01:55;;;;;;;10.95;2.17;;;20.10;53.00;;;;;;5040579;28;20064;-66
2021/05/23 06:04:23;;;;;;;11.20;2.10;;;21.70;49.80;;;;;;5052083;28;20044;-66
2021/05/23 06:06:53;;;;;;;9.27;1.85;;;23.10;46.10;;;;;;5039034;28;22091;-66
2021/05/23 06:09:24;;;;;;;7.43;2.00;;;24.40;42.80;;;;;;5040733;28;20154;-66
2021/05/23 06:11:49;;;;;;;8.07;2.00;;;25.50;39.70;;;;;;5039601;28;20047;-66
2021/05/23 06:14:15;;;;;;;9.50;1.90;;;26.30;38.40;;;;;;5043371;28;20040;-66
2021/05/23 06:16:46;;;;;;;9.70;2.40;;;26.90;36.00;;;;;;5044971;28;20429;-66
2021/05/23 06:19:13;;;;;;;5.80;1.77;;;27.10;34.40;;;;;;5038612;28;20125;-66
2021/05/23 06:21:39;;;;;;;7.95;1.98;;;27.60;33.80;;;;;;5045926;28;20071;-66
2021/05/23 06:24:05;;;;;;;7.70;1.40;;;28.30;32.20;;;;;;5049466;28;20509;-66
2021/05/23 06:26:31;;;;;;;8.77;1.60;;;;;;;;;;5052957;28;20029;-66
2021/05/23 06:28:56;;;;;;;7.20;1.88;;;29.00;30.80;;;;;;5057557;28;20029;-67
2021/05/23 06:31:22;;;;;;;6.30;1.70;;;29.40;29.70;;;;;;5046944;28;20539;-66
2021/05/23 06:33:47;;;;;;;5.70;1.67;;;29.20;29.00;;;;;;5051012;28;20102;-65
2021/05/23 06:36:13;;;;;;;9.48;1.63;;;28.80;28.90;;;;;;5065476;28;20373;-66
2021/05/23 06:38:39;;;;;;;10.35;1.50;;;27.90;29.20;;;;;;5050708;28;20043;-66
2021/05/23 06:41:04;;;;;;;7.72;1.83;;;26.70;30.00;;;;;;5059307;28;20124;-65
2021/05/23 06:43:33;;;;;;;13.00;2.50;;;25.80;31.10;;;;;;5046764;28;20079;-66
2021/05/23 06:45:59;;;;;;;11.90;1.92;;;24.80;32.20;;;;;;5044080;28;20171;-66
2021/05/23 06:48:26;;;;;;;9.00;1.55;;;23.90;33.60;;;;;;5046093;28;20033;-66
2021/05/23 06:50:52;;;;;;;11.63;1.85;;;23.20;34.80;;;;;;5067964;28;20070;-65
2021/05/23 06:53:25;;;;;;;9.63;1.73;;;22.70;36.00;;;;;;5047382;28;20064;-65
2021/05/23 06:55:53;;;;;;;10.57;1.70;;;22.30;36.60;;;;;;5050404;28;20035;-65
2021/05/23 06:58:23;;;;;;;12.05;1.80;;;21.90;37.00;;;;;;5051091;28;20060;-65
2021/05/23 07:00:51;;;;;;;5.15;1.77;;;21.50;37.80;;;;;;5045600;28;20068;-65
2021/05/23 07:03:19;;;;;;;12.02;2.17;;;21.20;39.00;;;;;;5048210;28;20041;-65
2021/05/23 07:05:45;;;;;;;10.02;1.65;;;20.80;39.60;;;;;;5049328;28;20040;-65
2021/05/23 07:08:12;;;;;;;8.75;1.63;;;20.50;39.70;;;;;;5058703;28;20498;-65
2021/05/23 07:10:38;;;;;;;13.07;1.65;;;20.50;40.50;;;;;;5050761;28;20053;-65
2021/05/23 07:13:06;;;;;;;9.80;1.60;;;20.90;40.40;;;;;;5055547;28;20041;-65
2021/05/23 07:15:31;;;;;;;10.10;1.48;;;21.80;39.50;;;;;;5053602;28;20047;-66
2021/05/23 07:17:58;;;;;;;8.13;1.40;;;23.20;37.80;;;;;;5052373;28;20040;-66
2021/05/23 07:20:26;;;;;;;8.60;1.48;;;24.90;35.20;;;;;;5056316;28;20041;-65
2021/05/23 07:22:52;;;;;;;4.75;1.27;;;26.60;32.50;;;;;;5064744;28;20530;-66
2021/05/23 07:25:20;;;;;;;5.90;1.30;;;28.20;30.00;;;;;;5064156;28;20107;-66
2021/05/23 07:27:45;;;;;;;2.63;1.10;;;29.60;29.00;;;;;;5061629;28;20032;-65
2021/05/23 07:30:14;;;;;;;4.50;1.13;;;;;;;;;;5058017;28;20032;-66
2021/05/23 07:32:40;;;;;;;9.85;1.58;;;30.90;27.40;;;;;;5060574;28;20044;-66
2021/05/23 07:35:06;;;;;;;6.35;1.20;;;32.40;25.70;;;;;;5060669;28;20032;-65
2021/05/23 07:37:33;;;;;;;6.15;1.20;;;32.90;25.10;;;;;;5058349;28;20139;-66
2021/05/23 07:40:00;;;;;;;5.72;1.20;;;33.40;24.20;;;;;;5056297;28;20033;-66
2021/05/23 07:42:28;;;;;;;5.80;1.00;;;33.90;23.60;;;;;;5056784;28;20859;-66
2021/05/23 07:44:56;;;;;;;7.18;1.48;;;34.60;23.20;;;;;;5055954;28;20044;-66
2021/05/23 07:47:22;;;;;;;3.58;1.27;;;35.20;22.80;;;;;;5059481;28;20040;-67
2021/05/23 07:49:51;;;;;;;4.38;1.00;;;35.70;21.70;;;;;;5057486;28;20158;-66
2021/05/23 07:52:17;;;;;;;6.22;1.42;;;35.80;21.10;;;;;;5055315;28;20037;-66
2021/05/23 07:54:42;;;;;;;5.18;1.02;;;35.60;20.90;;;;;;5058199;28;20143;-66
2021/05/23 07:57:11;;;;;;;1.95;1.05;;;35.80;20.70;;;;;;5054341;28;20033;-66
2021/05/23 07:59:36;;;;;;;3.70;0.88;;;35.80;20.70;;;;;;5060982;28;20092;-66
2021/05/23 08:02:05;;;;;;;3.35;0.88;;;35.40;20.20;;;;;;5045542;28;20040;-66
2021/05/23 08:04:33;;;;;;;4.15;1.08;;;35.10;20.70;;;;;;5055501;28;20040;-66
2021/05/23 08:06:58;;;;;;;3.47;0.93;;;35.20;20.60;;;;;;5055265;28;20028;-66
2021/05/23 08:09:24;;;;;;;3.60;1.10;;;;;;;;;;5062898;28;20072;-65
2021/05/23 08:11:50;;;;;;;3.72;1.02;;;;;;;;;;5059487;28;20040;-66
2021/05/23 08:14:16;;;;;;;4.25;0.80;;;;;;;;;;5059289;28;20149;-66
2021/05/23 08:16:44;;;;;;;5.35;1.10;;;35.80;20.70;;;;;;5056738;28;20067;-66
2021/05/23 08:19:13;;;;;;;8.18;1.10;;;32.00;22.10;;;;;;5057109;28;20280;-66
2021/05/23 08:21:39;;;;;;;4.82;1.00;;;30.90;23.60;;;;;;5067115;28;20438;-65
2021/05/23 08:24:08;;;;;;;3.40;0.82;;;30.20;24.30;;;;;;5052768;28;20043;-66
2021/05/23 08:26:34;;;;;;;5.32;1.10;;;29.80;24.30;;;;;;5049031;28;20066;-66
2021/05/23 08:29:03;;;;;;;6.32;1.25;;;29.50;24.40;;;;;;5051230;28;20122;-66
2021/05/23 08:31:28;;;;;;;3.30;0.98;;;29.70;25.10;;;;;;5048820;28;20029;-66
2021/05/23 08:33:56;;;;;;;3.42;1.10;;;30.70;24.20;;;;;;5054523;28;20033;-65
2021/05/23 08:36:22;;;;;;;2.35;0.75;;;32.00;23.60;;;;;;5056663;28;20048;-66
2021/05/23 08:38:48;;;;;;;1.20;0.57;;;;;;;;;;5057053;28;20041;-65
2021/05/23 08:41:20;;;;;;;1.63;0.90;;;33.30;22.30;;;;;;5054447;28;20056;-66
2021/05/23 08:43:52;;;;;;;4.03;0.82;;;34.30;20.10;;;;;;5058638;28;20071;-65
2021/05/23 08:46:20;;;;;;;2.58;0.93;;;;;;;;;;5056344;28;20042;-66
2021/05/23 08:48:49;;;;;;;3.45;0.80;;;33.70;20.70;;;;;;5048884;28;20047;-66
2021/05/23 08:51:15;;;;;;;3.63;0.80;;;32.10;20.90;;;;;;5061251;28;20123;-66
2021/05/23 08:53:43;;;;;;;2.72;0.93;;;31.80;21.90;;;;;;5060711;28;20189;-66
2021/05/23 08:56:08;;;;;;;3.20;0.93;;;32.00;21.50;;;;;;5057630;28;20051;-66
2021/05/23 08:58:36;;;;;;;1.25;0.70;;;32.60;20.80;;;;;;5059679;28;20033;-66
2021/05/23 09:01:04;;;;;;;2.45;0.80;;;32.70;20.70;;;;;;5054541;28;20043;-66
2021/05/23 09:03:29;;;;;;;4.28;1.02;;;32.30;21.20;;;;;;5063505;28;20044;-66
2021/05/23 09:05:58;;;;;;;5.10;1.55;;;31.70;21.90;;;;;;5061332;28;20102;-65
2021/05/23 09:08:28;;;;;;;2.42;0.95;;;31.20;23.40;;;;;;5060623;28;20041;-66
2021/05/23 09:10:57;;;;;;;3.15;1.10;;;31.40;23.00;;;;;;5058733;28;20254;-65
2021/05/23 09:13:34;;;;;;;3.80;1.20;;;31.50;23.40;;;;;;5059912;28;20511;-66
2021/05/23 09:16:13;;;;;;;6.20;1.48;;;31.00;23.80;;;;;;5060926;28;20639;-65
2021/05/23 09:18:40;;;;;;;4.78;1.35;;;30.80;24.50;;;;;;5058662;28;20040;-66
2021/05/23 09:21:07;;;;;;;4.38;1.50;;;30.90;24.50;;;;;;5055797;28;20086;-66
2021/05/23 09:23:44;;;;;;;5.03;1.63;;;30.60;24.90;;;;;;5057370;28;20524;-67
2021/05/23 09:26:37;;;;;;;3.67;1.50;;;30.00;25.60;;;;;;5051772;28;20063;-66
2021/05/23 09:29:09;;;;;;;7.32;1.70;;;29.50;25.50;;;;;;5056222;28;20048;-66
2021/05/23 09:31:36;;;;;;;4.63;1.70;;;28.80;26.70;;;;;;5057971;28;20502;-66
2021/05/23 09:34:01;;;;;;;5.38;1.30;;;29.00;27.40;;;;;;5058715;28;20446;-66
2021/05/23 09:36:27;;;;;;;4.28;1.60;;;29.70;27.00;;;;;;5055447;28;20116;-66
2021/05/23 09:39:00;;;;;;;7.55;2.03;;;30.20;26.20;;;;;;5056676;28;20807;-66
2021/05/23 09:41:38;;;;;;;3.10;1.67;;;30.40;25.10;;;;;;5059497;28;20064;-66
2021/05/23 09:44:13;;;;;;;4.65;1.63;;;30.30;25.60;;;;;;5058475;28;20067;-66
2021/05/23 09:47:02;;;;;;;6.30;2.22;;;29.80;26.40;;;;;;5058824;28;20067;-66
2021/05/23 09:49:54;;;;;;;9.95;2.20;;;29.30;26.60;;;;;;5055066;28;20041;-66
2021/05/23 09:52:34;;;;;;;6.90;2.50;;;28.90;27.70;;;;;;5053015;28;20036;-66
2021/05/23 09:55:03;;;;;;;5.13;2.03;;;28.40;27.10;;;;;;5049484;28;20036;-66
2021/05/23 09:57:33;;;;;;;7.15;2.25;;;27.90;28.10;;;;;;5056649;28;20908;-66
2021/05/23 10:00:07;;;;;;;5.65;2.40;;;27.60;29.10;;;;;;5048479;28;20052;-66
2021/05/23 10:02:33;;;;;;;5.38;2.33;;;27.20;28.70;;;;;;5052724;28;20226;-66
2021/05/23 10:05:07;;;;;;;6.13;2.05;;;26.70;29.20;;;;;;5060619;28;20028;-65
2021/05/23 10:07:37;;;;;;;6.43;2.60;;;25.90;29.70;;;;;;5055415;28;20048;-66
2021/05/23 10:10:05;;;;;;;5.50;2.20;;;25.20;30.30;;;;;;5055249;28;20047;-65
2021/05/23 10:12:33;;;;;;;8.15;2.63;;;24.70;31.30;;;;;;5057640;28;20194;-66
2021/05/23 10:15:01;;;;;;;4.30;2.30;;;24.30;31.10;;;;;;5055552;28;20094;-65
2021/05/23 10:17:27;;;;;;;4.20;2.58;;;23.70;32.20;;;;;;5057426;28;20035;-65
2021/05/23 10:19:53;;;;;;;5.35;2.35;;;23.30;32.80;;;;;;5055287;28;20466;-66
2021/05/23 10:22:22;;;;;;;5.90;2.33;;;22.90;34.10;;;;;;5051092;28;20448;-65
2021/05/23 10:24:52;;;;;;;5.55;2.20;;;22.60;34.10;;;;;;5043915;28;20052;-66
2021/05/23 10:27:25;;;;;;;7.85;2.45;;;22.30;34.70;;;;;;5047868;28;20691;-66
2021/05/23 10:29:53;;;;;;;5.88;2.55;;;22.10;34.90;;;;;;5067320;28;20071;-66
2021/05/23 10:32:30;;;;;;;7.38;2.60;;;22.10;35.20;;;;;;5051027;28;20044;-65
2021/05/23 10:34:57;;;;;;;5.28;2.53;;;22.20;35.20;;;;;;5056970;28;20263;-65
2021/05/23 10:37:28;;;;;;;8.77;2.47;;;22.30;35.30;;;;;;5046692;28;20036;-66
2021/05/23 10:39:55;;;;;;;5.72;2.50;;;22.50;36.30;;;;;;5046211;28;20062;-65
2021/05/23 10:42:23;;;;;;;4.72;2.60;;;22.90;35.80;;;;;;5048021;28;20068;-66
2021/05/23 10:44:54;;;;;;;6.93;2.30;;;23.20;34.60;;;;;;5041049;28;20037;-66
2021/05/23 10:47:34;;;;;;;5.50;2.67;;;23.20;34.50;;;;;;5043117;28;20095;-65
2021/05/23 10:50:11;;;;;;;7.30;2.60;;;23.30;34.20;;;;;;5038345;28;20072;-66
2021/05/23 10:52:39;;;;;;;4.45;2.80;;;23.20;35.10;;;;;;5056278;28;20048;-65
2021/05/23 10:55:16;;;;;;;4.90;2.60;;;23.30;34.60;;;;;;5056662;28;20047;-65
2021/05/23 10:58:08;;;;;;;5.93;2.42;;;23.20;34.70;;;;;;5048887;28;20071;-66
2021/05/23 11:00:39;;;;;;;5.07;2.72;;;23.20;36.10;;;;;;5039880;28;20044;-65
2021/05/23 11:03:18;;;;;;;4.63;2.40;;;23.10;35.40;;;;;;5057958;28;20097;-66
2021/05/23 11:05:48;;;;;;;5.93;2.72;;;23.00;36.10;;;;;;5058466;28;20052;-65
2021/05/23 11:08:15;;;;;;;4.65;2.85;;;23.00;36.20;;;;;;5053180;28;20453;-66
2021/05/23 11:10:48;;;;;;;3.85;2.70;;;23.00;35.80;;;;;;5056132;28;20978;-65
2021/05/23 11:13:29;;;;;;;5.25;2.80;;;22.90;35.70;;;;;;5057585;28;20829;-65
2021/05/23 11:15:55;;;;;;;5.97;3.25;;;22.70;36.10;;;;;;5057093;28;20032;-65
2021/05/23 11:18:26;;;;;;;8.18;3.20;;;22.40;36.40;;;;;;5052015;28;20037;-65
2021/05/23 11:21:03;;;;;;;8.10;2.70;;;22.10;36.60;;;;;;5046350;28;20033;-65
2021/05/23 11:23:42;;;;;;;4.28;2.72;;;22.00;38.10;;;;;;5055609;28;20044;-65
2021/05/23 11:26:13;;;;;;;3.47;2.70;;;22.00;37.50;;;;;;5051679;28;20040;-65
2021/05/23 11:28:39;;;;;;;3.17;2.13;;;21.90;37.90;;;;;;5053683;28;20665;-65
2021/05/23 11:31:10;;;;;;;4.00;2.60;;;21.90;38.40;;;;;;5059369;28;20060;-65
2021/05/23 11:33:36;;;;;;;4.13;2.22;;;21.90;38.40;;;;;;5060286;28;20072;-65
2021/05/23 11:36:01;;;;;;;7.53;3.25;;;21.90;38.90;;;;;;5052671;28;20277;-65
2021/05/23 11:38:37;;;;;;;4.82;2.75;;;21.80;38.70;;;;;;5053116;28;20118;-65
2021/05/23 11:41:04;;;;;;;5.35;3.33;;;21.60;39.30;;;;;;5052863;28;20036;-66
2021/05/23 11:43:32;;;;;;;7.25;3.95;;;21.30;39.10;;;;;;5047640;28;20045;-65
2021/05/23 11:46:03;;;;;;;7.35;3.65;;;20.90;39.90;;;;;;5053753;28;20072;-66
2021/05/23 11:48:39;;;;;;;8.52;4.50;;;20.60;41.70;;;;;;5052752;28;20242;-66
2021/05/23 11:51:10;;;;;;;5.82;4.47;;;20.30;42.40;;;;;;5050973;28;21733;-66
2021/05/23 11:53:38;;;;;;;6.55;4.07;;;20.00;43.50;;;;;;5053079;28;20470;-66
2021/05/23 11:56:06;;;;;;;5.35;3.88;;;19.90;44.10;;;;;;5048913;28;20041;-66
2021/05/23 11:58:32;;;;;;;5.80;3.80;;;19.80;44.80;;;;;;5056108;28;20033;-66
2021/05/23 12:01:14;;;;;;;5.97;3.75;;;20.00;45.20;;;;;;5046610;28;20045;-66
2021/05/23 12:03:40;;;;;;;6.35;3.55;;;20.30;44.70;;;;;;5060904;28;20044;-66
2021/05/23 12:06:15;;;;;;;5.00;3.40;;;20.70;44.00;;;;;;5057934;28;20043;-66
2021/05/23 12:08:41;;;;;;;5.05;3.40;;;21.00;42.90;;;;;;5057025;28;20045;-66
2021/05/23 12:11:10;;;;;;;4.28;3.30;;;21.30;42.30;;;;;;5050576;28;20246;-65
2021/05/23 12:13:36;;;;;;;5.90;3.72;;;21.30;42.60;;;;;;5049156;28;20068;-66
2021/05/23 12:16:03;;;;;;;5.50;3.85;;;21.30;42.70;;;;;;5052562;28;20593;-66
2021/05/23 12:18:42;;;;;;;5.95;3.40;;;21.40;42.10;;;;;;5056407;28;20090;-66
2021/05/23 12:21:20;;;;;;;5.93;4.30;;;21.40;41.80;;;;;;5059937;28;20549;-66
2021/05/23 12:23:48;;;;;;;9.00;4.03;;;21.50;41.30;;;;;;5055146;28;20098;-65
2021/05/23 12:26:18;;;;;;;4.32;3.65;;;21.60;41.40;;;;;;5058068;28;20044;-66
2021/05/23 12:28:49;;;;;;;4.45;3.90;;;21.60;41.80;;;;;;5052478;28;20126;-66
2021/05/23 12:31:17;;;;;;;5.85;4.28;;;21.70;41.50;;;;;;5052493;28;20049;-65
2021/05/23 12:33:55;;;;;;;6.05;3.90;;;21.70;41.30;;;;;;5060262;28;20182;-66
2021/05/23 12:36:23;;;;;;;7.47;3.30;;;21.90;41.90;;;;;;5056100;28;20071;-66
2021/05/23 12:39:07;;;;;;;4.47;3.20;;;22.20;42.00;;;;;;5056579;28;20040;-66
2021/05/23 12:41:44;;;;;;;4.28;3.30;;;22.40;41.30;;;;;;5058749;28;20140;-66
2021/05/23 12:44:29;;;;;;;6.57;4.18;;;22.60;39.80;;;;;;5064891;28;20036;-66
2021/05/23 12:46:55;;;;;;;5.80;3.72;;;22.50;39.80;;;;;;5059001;28;20123;-67
2021/05/23 12:49:27;;;;;;;3.55;3.25;;;22.40;39.80;;;;;;5056698;28;20097;-66
2021/05/23 12:51:53;;;;;;;4.80;3.63;;;22.30;40.60;;;;;;5064498;28;20753;-66
2021/05/23 12:54:41;;;;;;;5.03;2.80;;;22.50;40.30;;;;;;5058652;28;20120;-66